CZSJ

Sandy Lake Airport

Sandy Lake, Ontario, Canada
METAR CZSJ 210900Z AUTO 00000KT 7SM CLR 16/09 A2983 RMK SLP107 DENSITY ALT 1300FT
Observed Flight Rules
Jun-21 @ 09:00 UTC (56 minutes ago) Visual Flight Rules
Visibility Clouds
7 miles
  • Clear skies
Temperatures Readings
Current 16°C / 61°F
Dewpoint 9°C / 48°F
Humidity 63%
Altimeter 29.83" Hg
Pressure 1010.7 hPa
Elevation 290
METAR CZSJ 210900Z AUTO 00000KT 7SM CLR 16/09 A2983 RMK SLP107 DENSITY ALT 1300FT
Observed Flight Rules
Jun-21 @ 09:00 UTC
(56 minutes ago)
VFR
Clouds
  • Clear skies
Temperature Dewpoint
16°C / 61°F 9°C / 48°F
Humidity Altimeter Pressure
63% 29.83" Hg 1010.7 hPa